Space Coast Regional Airport Titusville US
ICAO: KTIX
IATA: TIX
Category: Medium
Scheduled Services: No

Elevation: 34 ft
TransAlt. 18000 ft.

Airport Communications:
ORLANDO APP/DEP:134.95
ATIS:120.625
CTAF:118.9
GND:121.85
ST PETERSBURG RDO:123.6
TWR:118.9
UNICOM:122.95

KTIX Zoom In..

If you have problems with the map follow the link
https://www.worldairports.se/pages/airport.php?
ICAO=KTIX

Runways:

(A) RW 09 length 5000 ft width 100 ft
---- / hdg 94

(B) RW 18 length 7319 ft width 150 ft
---- / hdg 184

(C) RW 27 length 5000 ft width 100 ft
---- / hdg 274

(D) RW 36 length 7319 ft width 150 ft
ILS 108.70 / hdg 4

Location; KTIX
Day. 07 / Time. 01.47 Zulu
* Altimeter: 30.18
* Temperature: 17° c. 62.6°f.
* Wind from: KTI° Speed X kn.
Dewpoint: 16° c.
Visibility: 7 Statute Miles.
Clouds: Clear (manual report).

KTIX 070147Z 00000KT 7SM SKC 17/16 A3018


Wind From KTI°
Speed X kn.

 
 
jpsmedia worldairports.se 2019   terms of use